Time;durP1;ratioP1;P1;durP2;ratioP2;P2;SDS_P1;SDS_P2;PMS_P1;PMS_P2;Temp;Humidity;BMP_temperature;BMP_pressure;BME280_temperature;BME280_humidity;BME280_pressure;Samples;Min_cycle;Max_cycle;Signal;HPM_P1;HPM_P2
2022/07/23 00:01:19;;;;;;;10.68;3.50;;;14.60;99.90;;;;;;4936138;29;20059;-77
2022/07/23 00:03:49;;;;;;;6.45;2.95;;;14.50;99.90;;;;;;4934727;29;20510;-78
2022/07/23 00:06:15;;;;;;;11.27;3.63;;;14.50;99.90;;;;;;4950861;29;20126;-78
2022/07/23 00:08:41;;;;;;;8.60;3.25;;;14.50;99.90;;;;;;4938055;29;20043;-77
2022/07/23 00:11:07;;;;;;;8.45;3.42;;;14.40;99.90;;;;;;4953033;29;20073;-76
2022/07/23 00:13:32;;;;;;;9.05;3.67;;;14.40;99.90;;;;;;4952531;29;20502;-77
2022/07/23 00:15:58;;;;;;;6.97;3.33;;;14.30;99.90;;;;;;4953794;29;20053;-77
2022/07/23 00:18:24;;;;;;;9.32;3.38;;;14.20;99.90;;;;;;4951681;28;20101;-77
2022/07/23 00:20:51;;;;;;;13.27;3.28;;;14.20;99.90;;;;;;4934429;29;20059;-77
2022/07/23 00:23:17;;;;;;;12.32;3.92;;;14.10;99.90;;;;;;4933523;29;20052;-78
2022/07/23 00:25:43;;;;;;;10.67;3.53;;;14.10;99.90;;;;;;4933867;29;20429;-77
2022/07/23 00:28:08;;;;;;;9.73;3.90;;;14.00;99.90;;;;;;4933260;29;20055;-78
2022/07/23 00:30:35;;;;;;;14.15;3.33;;;14.00;99.90;;;;;;4931323;29;20110;-77
2022/07/23 00:33:04;;;;;;;10.57;3.88;;;13.90;99.90;;;;;;4941832;29;20497;-76
2022/07/23 00:35:36;;;;;;;13.10;4.18;;;13.90;99.90;;;;;;4951725;29;20282;-76
2022/07/23 00:38:03;;;;;;;12.18;3.60;;;14.00;99.90;;;;;;4952226;29;20070;-78
2022/07/23 00:40:29;;;;;;;11.38;4.10;;;14.00;99.90;;;;;;4931785;29;20083;-78
2022/07/23 00:42:55;;;;;;;9.50;3.95;;;14.00;99.90;;;;;;4933748;29;20143;-78
2022/07/23 00:45:21;;;;;;;8.15;3.85;;;13.90;99.90;;;;;;4932568;29;20095;-76
2022/07/23 00:47:47;;;;;;;9.27;3.58;;;14.00;99.90;;;;;;4934249;29;20051;-77
2022/07/23 00:50:13;;;;;;;11.00;3.53;;;13.90;99.90;;;;;;4916990;29;20047;-80
2022/07/23 00:52:40;;;;;;;9.03;3.77;;;13.90;99.90;;;;;;4935191;29;20059;-78
2022/07/23 00:55:07;;;;;;;11.55;4.38;;;13.90;99.90;;;;;;4937954;29;20063;-77
2022/07/23 00:57:34;;;;;;;8.88;4.10;;;13.90;99.90;;;;;;4934747;29;20440;-77
2022/07/23 00:59:59;;;;;;;9.15;4.18;;;13.90;99.90;;;;;;4948782;29;20078;-78
2022/07/23 01:02:26;;;;;;;11.30;4.78;;;13.80;99.90;;;;;;4952258;29;20063;-76
2022/07/23 01:04:52;;;;;;;;;;;13.80;99.90;;;;;;4951271;29;20120;-76
2022/07/23 01:07:19;;;;;;;14.77;4.47;;;13.80;99.90;;;;;;4951511;29;19938;-77
2022/07/23 01:09:45;;;;;;;12.97;4.00;;;13.70;99.90;;;;;;4951134;29;20059;-77
2022/07/23 01:12:12;;;;;;;13.95;4.32;;;13.70;99.90;;;;;;4933346;29;20159;-78
2022/07/23 01:14:37;;;;;;;9.52;3.95;;;13.60;99.90;;;;;;4934194;29;20134;-78
2022/07/23 01:17:03;;;;;;;12.05;5.13;;;13.60;99.90;;;;;;4936249;29;20139;-77
2022/07/23 01:19:29;;;;;;;10.80;4.50;;;13.50;99.90;;;;;;4946355;29;20047;-77
2022/07/23 01:21:58;;;;;;;10.75;4.30;;;13.50;99.90;;;;;;4955523;29;20047;-78
2022/07/23 01:24:24;;;;;;;10.25;4.35;;;13.40;99.90;;;;;;4953947;28;20051;-77
2022/07/23 01:26:50;;;;;;;12.57;4.17;;;13.40;99.90;;;;;;4939488;29;20052;-78
2022/07/23 01:29:16;;;;;;;11.43;5.13;;;13.30;99.90;;;;;;4954673;28;20047;-81
2022/07/23 01:31:42;;;;;;;10.97;4.07;;;13.30;99.90;;;;;;4955274;29;20062;-78
2022/07/23 01:34:09;;;;;;;10.13;4.50;;;13.30;99.90;;;;;;4952895;29;20303;-79
2022/07/23 01:36:35;;;;;;;10.48;4.35;;;13.30;99.90;;;;;;4955814;29;20282;-78
2022/07/23 01:39:03;;;;;;;9.85;4.38;;;13.30;99.90;;;;;;4953652;29;20066;-76
2022/07/23 01:41:28;;;;;;;11.05;4.45;;;13.20;99.90;;;;;;4956826;28;20055;-79
2022/07/23 01:43:54;;;;;;;12.05;4.32;;;13.20;99.90;;;;;;4954775;29;20101;-78
2022/07/23 01:46:20;;;;;;;12.15;4.72;;;13.20;99.90;;;;;;4955827;29;20047;-77
2022/07/23 01:48:46;;;;;;;11.73;4.57;;;13.20;99.90;;;;;;4952635;29;20506;-77
2022/07/23 01:51:11;;;;;;;9.23;4.47;;;13.10;99.90;;;;;;4939241;29;20051;-77
2022/07/23 01:53:37;;;;;;;11.10;4.53;;;13.10;99.90;;;;;;4953360;28;20066;-78
2022/07/23 01:56:03;;;;;;;10.35;4.40;;;13.10;99.90;;;;;;4954356;29;20047;-77
2022/07/23 01:58:29;;;;;;;12.18;4.53;;;13.00;99.90;;;;;;4953613;29;20506;-77
2022/07/23 02:00:56;;;;;;;9.30;4.53;;;13.00;99.90;;;;;;4955056;28;20054;-77
2022/07/23 02:03:22;;;;;;;11.90;4.50;;;13.00;99.90;;;;;;4953257;29;20047;-77
2022/07/23 02:05:48;;;;;;;10.50;4.47;;;13.00;99.90;;;;;;4954554;29;20062;-77
2022/07/23 02:08:14;;;;;;;9.77;4.17;;;12.90;99.90;;;;;;4937546;29;20043;-77
2022/07/23 02:10:39;;;;;;;9.90;4.65;;;12.90;99.90;;;;;;4955134;28;20925;-77
2022/07/23 02:13:05;;;;;;;12.45;4.47;;;12.80;99.90;;;;;;4954212;28;20051;-78
2022/07/23 02:15:32;;;;;;;12.07;4.72;;;12.80;99.90;;;;;;4954876;29;20078;-77
2022/07/23 02:17:57;;;;;;;11.65;5.60;;;12.80;99.90;;;;;;4955674;28;20317;-78
2022/07/23 02:20:23;;;;;;;14.82;6.72;;;12.70;99.90;;;;;;4951675;28;20122;-78
2022/07/23 02:22:49;;;;;;;11.80;5.60;;;12.70;99.90;;;;;;4926177;29;20408;-78
2022/07/23 02:25:15;;;;;;;12.32;4.78;;;12.70;99.90;;;;;;4935626;29;20082;-78
2022/07/23 02:27:41;;;;;;;11.93;5.15;;;12.70;99.90;;;;;;4935957;29;20047;-79
2022/07/23 02:30:07;;;;;;;10.38;5.43;;;12.70;99.90;;;;;;4950676;29;20055;-78
2022/07/23 02:32:34;;;;;;;13.18;5.55;;;12.70;99.90;;;;;;4938555;29;20058;-78
2022/07/23 02:34:59;;;;;;;11.70;5.25;;;12.70;99.90;;;;;;4953849;29;20054;-77
2022/07/23 02:37:25;;;;;;;13.13;5.38;;;12.70;99.90;;;;;;4955072;29;20050;-77
2022/07/23 02:39:51;;;;;;;15.10;5.80;;;12.70;99.90;;;;;;4952364;29;20449;-78
2022/07/23 02:42:18;;;;;;;13.73;5.55;;;12.70;99.90;;;;;;4950850;29;20196;-77
2022/07/23 02:44:44;;;;;;;;;;;12.70;99.90;;;;;;4934404;29;20290;-78
2022/07/23 02:47:09;;;;;;;17.37;4.33;;;12.60;99.90;;;;;;4936688;29;20009;-78
2022/07/23 02:49:36;;;;;;;10.93;4.70;;;12.60;99.90;;;;;;4944773;29;20083;-78
2022/07/23 02:52:02;;;;;;;9.23;3.83;;;12.60;99.90;;;;;;4955206;29;20197;-78
2022/07/23 02:54:28;;;;;;;8.88;4.25;;;12.50;99.90;;;;;;4953215;29;20110;-78
2022/07/23 02:56:54;;;;;;;9.50;3.50;;;12.50;99.90;;;;;;4937669;29;20464;-77
2022/07/23 02:59:19;;;;;;;10.38;3.67;;;12.50;99.90;;;;;;4952044;29;20047;-78
2022/07/23 03:01:45;;;;;;;8.20;3.40;;;12.40;99.90;;;;;;4953716;29;20069;-78
2022/07/23 03:04:12;;;;;;;9.63;4.40;;;12.40;99.90;;;;;;4935604;29;20051;-78
2022/07/23 03:06:37;;;;;;;8.90;3.63;;;12.40;99.90;;;;;;4954753;29;20442;-78
2022/07/23 03:09:08;;;;;;;7.50;3.15;;;12.40;99.90;;;;;;4956156;29;20299;-80
2022/07/23 03:11:34;;;;;;;10.88;3.58;;;12.30;99.90;;;;;;4954387;29;20109;-79
2022/07/23 03:14:00;;;;;;;14.63;4.35;;;12.20;99.90;;;;;;4936279;29;20432;-79
2022/07/23 03:16:25;;;;;;;10.10;4.47;;;12.20;99.90;;;;;;4953005;29;20047;-81
2022/07/23 03:18:51;;;;;;;7.35;3.05;;;12.20;99.90;;;;;;4951147;28;20047;-77
2022/07/23 03:21:17;;;;;;;9.05;3.30;;;12.20;99.90;;;;;;4954443;29;20047;-77
2022/07/23 03:23:43;;;;;;;7.80;2.72;;;12.20;99.90;;;;;;4952019;29;20047;-78
2022/07/23 03:26:08;;;;;;;7.32;3.40;;;12.20;99.90;;;;;;4953344;29;20507;-78
2022/07/23 03:28:34;;;;;;;7.35;2.92;;;12.10;99.90;;;;;;4952170;29;20062;-78
2022/07/23 03:31:00;;;;;;;9.77;3.45;;;12.10;99.90;;;;;;4952590;29;20047;-78
2022/07/23 03:33:25;;;;;;;11.48;3.85;;;12.00;99.90;;;;;;4951688;29;20051;-80
2022/07/23 03:35:51;;;;;;;7.57;3.20;;;12.10;99.90;;;;;;4936797;29;20479;-79
2022/07/23 03:38:20;;;;;;;6.57;2.85;;;12.10;99.90;;;;;;4951115;28;20074;-78
2022/07/23 03:40:45;;;;;;;7.65;3.08;;;12.00;99.90;;;;;;4954209;29;20047;-79
2022/07/23 03:43:11;;;;;;;6.30;2.30;;;12.00;99.90;;;;;;4937112;29;20055;-80
2022/07/23 03:45:37;;;;;;;8.68;2.80;;;12.00;99.90;;;;;;4920519;29;20059;-77
2022/07/23 03:48:03;;;;;;;6.97;2.50;;;12.00;99.90;;;;;;4952231;29;20051;-77
2022/07/23 03:50:29;;;;;;;7.18;3.38;;;12.00;99.90;;;;;;4931820;29;20050;-82
2022/07/23 03:52:55;;;;;;;6.97;2.55;;;12.00;99.90;;;;;;4918109;29;20043;-80
2022/07/23 03:55:20;;;;;;;6.43;2.30;;;11.90;99.90;;;;;;4933409;29;20054;-78
2022/07/23 03:57:46;;;;;;;4.10;1.83;;;11.90;99.90;;;;;;4951623;29;20122;-79
2022/07/23 04:00:13;;;;;;;4.85;1.90;;;11.80;99.90;;;;;;4932495;29;20078;-78
2022/07/23 04:02:39;;;;;;;5.47;2.08;;;11.80;99.90;;;;;;4933676;29;20056;-79
2022/07/23 04:05:06;;;;;;;5.15;1.92;;;11.80;99.90;;;;;;4932351;29;20511;-78
2022/07/23 04:07:31;;;;;;;5.68;1.80;;;11.80;99.90;;;;;;4924253;29;20043;-81
2022/07/23 04:09:57;;;;;;;5.57;1.65;;;11.80;99.90;;;;;;4942069;29;20091;-79
2022/07/23 04:12:23;;;;;;;5.45;2.40;;;11.80;99.90;;;;;;4934044;29;20056;-79
2022/07/23 04:14:50;;;;;;;6.43;2.20;;;11.90;99.90;;;;;;4933622;29;20062;-79
2022/07/23 04:17:16;;;;;;;6.40;1.88;;;11.90;99.90;;;;;;4934637;29;20036;-77
2022/07/23 04:19:43;;;;;;;5.40;1.93;;;11.90;99.90;;;;;;4912791;29;20053;-79
2022/07/23 04:22:12;;;;;;;5.90;1.98;;;12.00;99.90;;;;;;4937761;29;20063;-78
2022/07/23 04:24:39;;;;;;;8.27;2.38;;;12.00;99.90;;;;;;4951977;29;20051;-78
2022/07/23 04:27:05;;;;;;;4.78;1.90;;;12.00;99.90;;;;;;4936513;29;20089;-80
2022/07/23 04:29:31;;;;;;;4.72;2.15;;;11.90;99.90;;;;;;4950451;29;20047;-78
2022/07/23 04:31:57;;;;;;;5.30;1.98;;;12.00;99.90;;;;;;4953120;29;20138;-78
2022/07/23 04:34:22;;;;;;;6.88;2.42;;;12.00;99.90;;;;;;4950433;29;20157;-77
2022/07/23 04:36:48;;;;;;;4.22;1.88;;;12.10;99.90;;;;;;4946805;29;20123;-78
2022/07/23 04:39:14;;;;;;;6.30;1.83;;;12.10;99.90;;;;;;4950050;29;20462;-79
2022/07/23 04:41:40;;;;;;;4.63;2.03;;;12.10;99.90;;;;;;4951994;28;20043;-78
2022/07/23 04:44:06;;;;;;;7.25;2.60;;;12.20;99.90;;;;;;4936004;29;20556;-77
2022/07/23 04:46:32;;;;;;;7.15;2.88;;;12.20;99.90;;;;;;4952236;29;20488;-77
2022/07/23 04:48:57;;;;;;;11.32;3.58;;;12.20;99.90;;;;;;4952083;28;20356;-77
2022/07/23 04:51:23;;;;;;;7.50;3.60;;;12.20;99.90;;;;;;4956433;29;20055;-78
2022/07/23 04:53:49;;;;;;;8.57;3.40;;;12.30;99.90;;;;;;4954942;29;20383;-78
2022/07/23 04:56:15;;;;;;;8.20;3.00;;;12.30;99.90;;;;;;4957243;28;20046;-78
2022/07/23 04:58:41;;;;;;;9.18;3.63;;;12.30;99.90;;;;;;4954881;29;20039;-78
2022/07/23 05:01:07;;;;;;;8.15;3.58;;;12.40;99.90;;;;;;4957438;29;20051;-78
2022/07/23 05:03:33;;;;;;;8.13;3.85;;;12.50;99.90;;;;;;4951695;29;20051;-78
2022/07/23 05:05:58;;;;;;;15.10;4.47;;;12.50;99.90;;;;;;4942056;29;20054;-77
2022/07/23 05:08:24;;;;;;;9.35;3.63;;;12.50;99.90;;;;;;4962340;29;20387;-77
2022/07/23 05:10:50;;;;;;;10.27;4.10;;;12.60;99.90;;;;;;4958936;29;20043;-79
2022/07/23 05:13:16;;;;;;;8.73;4.32;;;12.60;99.90;;;;;;4958606;28;20050;-79
2022/07/23 05:15:42;;;;;;;11.35;4.28;;;12.70;99.90;;;;;;4955643;29;20051;-80
2022/07/23 05:18:08;;;;;;;13.23;4.60;;;12.80;99.90;;;;;;4957089;28;20054;-80
2022/07/23 05:20:34;;;;;;;15.05;3.90;;;12.80;99.90;;;;;;4938780;29;20299;-78
2022/07/23 05:22:59;;;;;;;13.10;4.10;;;12.90;99.90;;;;;;4939834;29;20519;-78
2022/07/23 05:25:25;;;;;;;8.80;4.18;;;13.00;99.90;;;;;;4939698;29;20058;-79
2022/07/23 05:27:51;;;;;;;12.48;4.60;;;13.00;99.90;;;;;;4953807;29;20052;-78
2022/07/23 05:30:17;;;;;;;12.70;4.85;;;13.10;99.90;;;;;;4936284;29;20128;-78
2022/07/23 05:32:44;;;;;;;11.38;4.68;;;13.20;99.90;;;;;;4937810;29;20059;-80
2022/07/23 05:35:10;;;;;;;11.75;4.43;;;13.20;99.90;;;;;;4936078;29;20058;-77
2022/07/23 05:37:36;;;;;;;13.52;4.50;;;13.30;99.90;;;;;;4936641;29;20047;-77
2022/07/23 05:40:07;;;;;;;14.50;5.20;;;13.40;99.90;;;;;;4951853;29;20718;-77
2022/07/23 05:42:38;;;;;;;12.20;5.07;;;13.40;99.90;;;;;;4960031;29;20334;-75
2022/07/23 05:45:04;;;;;;;9.68;4.53;;;13.50;99.90;;;;;;4968291;29;20162;-80
2022/07/23 05:47:40;;;;;;;10.45;4.50;;;13.70;99.90;;;;;;4966377;29;20047;-76
2022/07/23 05:50:06;;;;;;;11.00;4.88;;;13.70;99.90;;;;;;4940900;29;20047;-76
2022/07/23 05:52:32;;;;;;;12.13;4.80;;;13.80;99.90;;;;;;4961608;28;20212;-76
2022/07/23 05:54:57;;;;;;;11.23;5.13;;;13.90;99.90;;;;;;4960300;29;20070;-76
2022/07/23 05:57:23;;;;;;;13.98;4.97;;;14.00;99.90;;;;;;4934047;29;20047;-77
2022/07/23 05:59:49;;;;;;;14.75;5.22;;;14.10;99.90;;;;;;4958669;28;20106;-78
2022/07/23 06:02:14;;;;;;;11.85;5.63;;;14.20;99.90;;;;;;4960020;28;20055;-79
2022/07/23 06:04:40;;;;;;;10.88;5.00;;;14.40;99.90;;;;;;4960354;29;20113;-79
2022/07/23 06:07:06;;;;;;;11.32;5.50;;;14.30;99.90;;;;;;4950550;29;20039;-79
2022/07/23 06:09:31;;;;;;;12.35;4.40;;;14.40;99.90;;;;;;4955170;29;20057;-78
2022/07/23 06:11:57;;;;;;;15.30;3.20;;;14.60;99.90;;;;;;4959956;29;20051;-77
2022/07/23 06:14:23;;;;;;;8.90;3.55;;;14.60;99.90;;;;;;4958022;28;20082;-73
2022/07/23 06:16:48;;;;;;;10.65;3.92;;;14.70;99.90;;;;;;4942076;29;20126;-76
2022/07/23 06:19:14;;;;;;;7.65;2.38;;;14.90;99.90;;;;;;4955812;28;20043;-77
2022/07/23 06:21:40;;;;;;;9.70;2.63;;;15.00;99.90;;;;;;4957173;28;20074;-76
2022/07/23 06:24:06;;;;;;;7.05;2.25;;;15.10;99.90;;;;;;4955033;29;20109;-78
2022/07/23 06:26:31;;;;;;;7.13;2.50;;;15.20;99.90;;;;;;4955668;28;20043;-78
2022/07/23 06:28:57;;;;;;;7.55;2.25;;;15.00;99.90;;;;;;4937816;29;20047;-77
2022/07/23 06:31:23;;;;;;;8.27;2.42;;;15.10;99.90;;;;;;4939724;29;20055;-77
2022/07/23 06:33:49;;;;;;;10.43;2.33;;;15.10;99.90;;;;;;4953367;29;20062;-81
2022/07/23 06:36:15;;;;;;;5.88;2.38;;;15.20;99.90;;;;;;4955650;29;20130;-78
2022/07/23 06:38:41;;;;;;;7.05;2.00;;;15.20;99.90;;;;;;4951627;29;20075;-79
2022/07/23 06:41:06;;;;;;;4.63;1.52;;;15.30;99.90;;;;;;4952092;29;20138;-76
2022/07/23 06:43:32;;;;;;;6.30;1.55;;;15.40;99.90;;;;;;4959009;29;20058;-81
2022/07/23 06:45:58;;;;;;;5.90;1.55;;;15.50;99.90;;;;;;4961955;29;20118;-79
2022/07/23 06:48:24;;;;;;;7.82;1.50;;;15.60;99.90;;;;;;4962952;29;20380;-80
2022/07/23 06:50:52;;;;;;;5.90;1.73;;;15.70;99.90;;;;;;4963299;28;20185;-76
2022/07/23 06:53:18;;;;;;;4.88;1.35;;;15.70;99.90;;;;;;4967287;28;20055;-76
2022/07/23 06:55:43;;;;;;;5.57;1.67;;;15.80;99.90;;;;;;4965449;28;20059;-79
2022/07/23 06:58:09;;;;;;;4.68;1.50;;;15.90;99.90;;;;;;4964662;29;20098;-80
2022/07/23 07:00:36;;;;;;;8.60;1.40;;;16.00;99.90;;;;;;4965060;29;20055;-79
2022/07/23 07:03:01;;;;;;;7.70;1.60;;;16.10;99.90;;;;;;4959640;28;20329;-80
2022/07/23 07:05:27;;;;;;;4.05;1.52;;;16.10;99.90;;;;;;4960703;29;20290;-77
2022/07/23 07:07:56;;;;;;;11.32;1.60;;;16.30;99.90;;;;;;4958645;29;20450;-81
2022/07/23 07:10:22;;;;;;;6.90;1.50;;;16.30;99.90;;;;;;4958969;28;20095;-79
2022/07/23 07:12:48;;;;;;;6.87;1.40;;;16.50;99.90;;;;;;4958526;28;20109;-77
2022/07/23 07:15:14;;;;;;;4.53;1.53;;;16.50;99.90;;;;;;4956703;29;20122;-78
2022/07/23 07:17:40;;;;;;;4.27;1.30;;;16.60;99.90;;;;;;4956875;28;20039;-78
2022/07/23 07:20:06;;;;;;;6.77;1.30;;;16.50;99.90;;;;;;4952580;28;20515;-80
2022/07/23 07:22:32;;;;;;;3.30;1.15;;;16.60;99.90;;;;;;4956549;29;20055;-76
2022/07/23 07:24:58;;;;;;;7.07;1.63;;;16.70;99.90;;;;;;4952192;28;20043;-77
2022/07/23 07:27:23;;;;;;;5.37;1.50;;;16.80;99.90;;;;;;4954046;28;20047;-79
2022/07/23 07:29:49;;;;;;;5.87;1.47;;;16.80;99.90;;;;;;4954251;29;20164;-78
2022/07/23 07:32:15;;;;;;;4.60;1.10;;;16.90;99.90;;;;;;4936457;29;20249;-78
2022/07/23 07:34:41;;;;;;;9.57;1.43;;;17.00;99.90;;;;;;4953226;29;20051;-77
2022/07/23 07:37:07;;;;;;;4.00;1.33;;;17.10;99.90;;;;;;4954179;28;20137;-77
2022/07/23 07:39:32;;;;;;;4.83;1.00;;;17.20;99.90;;;;;;4953016;28;20051;-77
2022/07/23 07:41:58;;;;;;;4.28;1.33;;;17.40;99.90;;;;;;4936404;29;20055;-80
2022/07/23 07:44:24;;;;;;;4.37;0.93;;;17.70;99.90;;;;;;4934260;29;20496;-80
2022/07/23 07:46:49;;;;;;;3.53;1.17;;;17.50;99.90;;;;;;4952513;29;20043;-75
2022/07/23 07:49:17;;;;;;;3.50;1.10;;;17.60;99.90;;;;;;4952338;28;20137;-76
2022/07/23 07:51:43;;;;;;;5.95;0.80;;;17.50;99.90;;;;;;4952973;29;20058;-77
2022/07/23 07:54:08;;;;;;;5.57;0.90;;;17.50;99.90;;;;;;4953177;29;20047;-75
2022/07/23 07:56:34;;;;;;;5.13;1.10;;;17.60;99.90;;;;;;4952617;29;20046;-79
2022/07/23 07:59:00;;;;;;;6.87;1.77;;;17.70;99.90;;;;;;4952136;29;20435;-79
2022/07/23 08:01:26;;;;;;;6.97;1.10;;;17.80;99.90;;;;;;4952302;29;20130;-78
2022/07/23 08:03:52;;;;;;;10.43;1.07;;;18.00;99.90;;;;;;4933864;29;20134;-77
2022/07/23 08:06:18;;;;;;;4.27;0.80;;;18.30;99.90;;;;;;4948442;29;20048;-75
2022/07/23 08:08:44;;;;;;;4.93;0.82;;;18.20;99.90;;;;;;4935208;29;20298;-77
2022/07/23 08:11:10;;;;;;;4.00;1.07;;;18.40;99.90;;;;;;4933888;29;20411;-78
2022/07/23 08:13:37;;;;;;;4.22;1.00;;;18.70;99.90;;;;;;4940379;29;20047;-78
2022/07/23 08:16:03;;;;;;;6.35;0.80;;;18.60;99.90;;;;;;4956781;29;20047;-80
2022/07/23 08:18:29;;;;;;;2.90;0.70;;;18.60;99.90;;;;;;4953990;28;20047;-76
2022/07/23 08:20:54;;;;;;;5.00;0.63;;;18.50;99.90;;;;;;4955774;29;20058;-79
2022/07/23 08:23:20;;;;;;;4.47;0.70;;;18.60;99.90;;;;;;4952946;29;20291;-77
2022/07/23 08:25:46;;;;;;;3.30;0.70;;;18.40;99.90;;;;;;4941344;29;20146;-80
2022/07/23 08:28:13;;;;;;;3.77;0.70;;;18.50;99.90;;;;;;4953618;29;20050;-78
2022/07/23 08:30:41;;;;;;;4.53;0.60;;;18.30;99.90;;;;;;4957220;29;20145;-79
2022/07/23 08:33:15;;;;;;;3.15;0.50;;;18.40;99.90;;;;;;4955808;28;20047;-80
2022/07/23 08:35:45;;;;;;;3.58;0.80;;;18.70;99.90;;;;;;4954444;28;20060;-78
2022/07/23 08:38:12;;;;;;;1.13;0.50;;;18.80;99.90;;;;;;4953040;28;20051;-79
2022/07/23 08:40:44;;;;;;;3.60;0.70;;;18.90;99.90;;;;;;4954875;28;20441;-78
2022/07/23 08:43:22;;;;;;;3.33;0.65;;;19.10;99.90;;;;;;4941381;29;20071;-81
2022/07/23 08:45:50;;;;;;;1.67;0.52;;;19.10;99.90;;;;;;4934863;29;20063;-76
2022/07/23 08:48:21;;;;;;;2.70;0.50;;;19.10;99.90;;;;;;4940734;29;20142;-80
2022/07/23 08:50:53;;;;;;;2.30;0.70;;;19.50;99.90;;;;;;4955199;29;20051;-78
2022/07/23 08:53:21;;;;;;;2.85;0.50;;;19.80;99.90;;;;;;4954391;29;20447;-79
2022/07/23 08:55:50;;;;;;;3.30;0.40;;;19.90;99.90;;;;;;4942914;29;20047;-79
2022/07/23 08:58:16;;;;;;;1.77;0.50;;;20.20;99.90;;;;;;4938671;29;20086;-80
2022/07/23 09:00:42;;;;;;;2.17;0.52;;;20.10;99.90;;;;;;4954417;29;20050;-80
2022/07/23 09:03:16;;;;;;;1.83;0.40;;;20.10;99.90;;;;;;4954722;28;20124;-80
2022/07/23 09:05:42;;;;;;;2.70;0.50;;;20.10;99.90;;;;;;4951257;29;20064;-78
2022/07/23 09:08:24;;;;;;;3.53;0.60;;;19.90;99.90;;;;;;4934141;29;20538;-80
2022/07/23 09:10:55;;;;;;;4.00;0.70;;;19.90;99.90;;;;;;4934094;29;20795;-78
2022/07/23 09:13:40;;;;;;;1.60;0.52;;;19.90;99.90;;;;;;4921499;29;20055;-76
2022/07/23 09:16:16;;;;;;;3.30;0.70;;;19.80;99.90;;;;;;4954796;29;20411;-76
2022/07/23 09:18:59;;;;;;;2.65;0.50;;;20.10;99.90;;;;;;4953074;29;20051;-77
2022/07/23 09:21:28;;;;;;;5.93;0.52;;;20.20;99.90;;;;;;4958074;28;20051;-79
2022/07/23 09:24:05;;;;;;;2.67;0.52;;;20.40;99.90;;;;;;4955501;29;20053;-76
2022/07/23 09:26:35;;;;;;;5.22;0.70;;;20.60;99.90;;;;;;4939576;29;20047;-80
2022/07/23 09:29:24;;;;;;;5.10;0.60;;;20.80;99.90;;;;;;4950795;29;20049;-76
2022/07/23 09:31:58;;;;;;;7.83;0.70;;;20.90;99.90;;;;;;4954638;29;20154;-79
2022/07/23 09:34:35;;;;;;;4.43;0.70;;;20.80;99.90;;;;;;4952265;28;20047;-78
2022/07/23 09:37:12;;;;;;;2.72;0.50;;;20.70;99.90;;;;;;4940121;29;20130;-77
2022/07/23 09:39:37;;;;;;;3.00;0.70;;;20.60;99.90;;;;;;4956754;29;20043;-77
2022/07/23 09:42:24;;;;;;;3.70;0.73;;;20.20;99.90;;;;;;4955988;29;20094;-78
2022/07/23 09:44:51;;;;;;;3.35;0.77;;;20.20;99.90;;;;;;4939049;29;20099;-78
2022/07/23 09:47:19;;;;;;;5.70;0.60;;;20.20;99.90;;;;;;4954809;28;20051;-77
2022/07/23 09:50:06;;;;;;;3.53;0.45;;;19.80;99.90;;;;;;4935441;29;20506;-76
2022/07/23 09:52:44;;;;;;;1.42;0.55;;;20.00;99.90;;;;;;4921275;29;20143;-78
2022/07/23 09:55:09;;;;;;;1.88;0.50;;;20.00;99.90;;;;;;4939451;29;20052;-80
2022/07/23 09:57:35;;;;;;;4.40;0.50;;;20.20;99.90;;;;;;4939553;29;20516;-78
2022/07/23 10:00:05;;;;;;;2.87;0.50;;;20.50;99.90;;;;;;4957984;29;20054;-78
2022/07/23 10:02:32;;;;;;;2.38;0.50;;;20.50;99.90;;;;;;4956530;28;20270;-78
2022/07/23 10:05:05;;;;;;;1.13;0.50;;;20.80;99.90;;;;;;4938668;29;20083;-75
2022/07/23 10:07:37;;;;;;;3.63;0.55;;;20.90;99.90;;;;;;4956452;29;20153;-78
2022/07/23 10:10:04;;;;;;;3.45;0.57;;;20.70;99.90;;;;;;4937419;29;20055;-79
2022/07/23 10:14:58;;;;;;;3.03;0.50;;;20.90;99.90;;;;;;4947357;29;20174;-77
2022/07/23 10:17:23;;;;;;;1.63;0.50;;;21.00;99.90;;;;;;4956331;29;20067;-78
2022/07/23 10:19:49;;;;;;;4.30;0.50;;;21.00;99.90;;;;;;4936630;29;20472;-77
2022/07/23 10:22:22;;;;;;;1.77;0.50;;;21.20;99.90;;;;;;4936297;29;20051;-81
2022/07/23 10:25:12;;;;;;;3.08;0.60;;;21.10;99.90;;;;;;4936191;29;20396;-75
2022/07/23 10:28:09;;;;;;;3.53;0.50;;;20.70;99.30;;;;;;4945717;29;20437;-77
2022/07/23 10:31:05;;;;;;;4.10;0.55;;;20.70;99.20;;;;;;4954583;28;20553;-78
2022/07/23 10:34:05;;;;;;;2.33;0.50;;;20.30;99.10;;;;;;4953166;29;20043;-76
2022/07/23 10:36:46;;;;;;;2.65;0.60;;;20.40;99.80;;;;;;4957395;29;20403;-79
2022/07/23 10:39:22;;;;;;;3.08;0.50;;;20.40;99.90;;;;;;4955098;29;20043;-77
2022/07/23 10:41:48;;;;;;;2.43;0.50;;;20.40;99.80;;;;;;4953889;29;20043;-81
2022/07/23 10:44:23;;;;;;;1.60;0.60;;;20.50;99.80;;;;;;4939169;29;20326;-76
2022/07/23 10:49:44;;;;;;;3.00;0.52;;;20.70;99.70;;;;;;4960311;29;20059;-80
2022/07/23 10:52:25;;;;;;;2.03;0.45;;;21.00;99.80;;;;;;4927697;29;20047;-79
2022/07/23 10:55:09;;;;;;;2.72;0.63;;;21.10;99.40;;;;;;4928572;29;20051;-79
2022/07/23 10:57:48;;;;;;;5.18;0.80;;;21.30;98.80;;;;;;4960798;29;20054;-77
2022/07/23 11:00:17;;;;;;;2.50;0.60;;;21.30;98.70;;;;;;4967571;29;20074;-78
2022/07/23 11:02:47;;;;;;;3.88;0.75;;;21.00;98.80;;;;;;4966561;28;20052;-78
2022/07/23 11:05:18;;;;;;;2.47;0.60;;;20.90;97.70;;;;;;4948472;29;20051;-78
2022/07/23 11:08:03;;;;;;;2.65;0.65;;;21.00;98.70;;;;;;4950149;29;20055;-76
2022/07/23 11:10:41;;;;;;;5.57;0.82;;;21.20;98.70;;;;;;4961367;29;20039;-80
2022/07/23 11:13:22;;;;;;;4.20;0.60;;;21.40;98.80;;;;;;4972235;28;20050;-80
2022/07/23 11:16:08;;;;;;;1.45;0.55;;;21.80;97.30;;;;;;4970746;29;20054;-77
2022/07/23 11:18:40;;;;;;;3.22;0.60;;;22.00;98.90;;;;;;4963299;29;20047;-78
2022/07/23 11:21:21;;;;;;;2.22;0.55;;;22.20;97.40;;;;;;4961798;28;20093;-77
2022/07/23 11:24:06;;;;;;;2.65;0.90;;;22.10;97.40;;;;;;4944128;29;20581;-79
2022/07/23 11:26:39;;;;;;;3.63;0.80;;;22.10;97.00;;;;;;4959380;29;20043;-79
2022/07/23 11:29:36;;;;;;;3.08;0.70;;;22.10;97.30;;;;;;4940210;29;20059;-77
2022/07/23 11:32:05;;;;;;;2.08;0.68;;;21.80;95.80;;;;;;4957740;28;20109;-77
2022/07/23 11:34:46;;;;;;;3.53;0.80;;;21.80;97.00;;;;;;4955959;29;20051;-79
2022/07/23 11:37:36;;;;;;;2.17;0.70;;;21.70;96.30;;;;;;4944195;29;20043;-77
2022/07/23 11:40:11;;;;;;;2.58;0.80;;;21.80;97.00;;;;;;4958514;28;20113;-77
2022/07/23 11:42:51;;;;;;;4.38;1.10;;;22.10;96.60;;;;;;4959027;29;20062;-78
2022/07/23 11:45:17;;;;;;;4.68;1.23;;;22.10;97.10;;;;;;4956563;28;20404;-76
2022/07/23 11:47:43;;;;;;;3.08;0.85;;;22.10;95.70;;;;;;4959893;29;20043;-81
2022/07/23 11:50:09;;;;;;;2.77;0.60;;;22.40;96.40;;;;;;4942378;29;20070;-78
2022/07/23 11:52:35;;;;;;;3.93;0.80;;;22.50;96.60;;;;;;4925716;29;20507;-75
2022/07/23 11:55:09;;;;;;;2.97;1.17;;;22.40;95.80;;;;;;4954524;29;20044;-78
2022/07/23 11:57:38;;;;;;;4.15;0.90;;;22.20;96.50;;;;;;4939124;29;20051;-81
2022/07/23 12:00:21;;;;;;;2.88;0.80;;;22.30;96.40;;;;;;4936717;29;20114;-77
2022/07/23 12:02:51;;;;;;;2.60;0.90;;;21.70;95.50;;;;;;4961588;29;20134;-79
2022/07/23 12:05:23;;;;;;;2.70;0.88;;;22.10;96.20;;;;;;4941707;29;20061;-79
2022/07/23 12:07:51;;;;;;;3.97;1.10;;;22.20;97.10;;;;;;4957629;28;20099;-80
2022/07/23 12:10:23;;;;;;;2.72;0.80;;;22.50;96.70;;;;;;4954678;29;20059;-79
2022/07/23 12:13:13;;;;;;;3.58;0.90;;;22.60;96.50;;;;;;4940417;29;20066;-79
2022/07/23 12:15:52;;;;;;;4.85;1.00;;;22.50;96.20;;;;;;4951920;29;20043;-78
2022/07/23 12:18:24;;;;;;;3.15;1.00;;;22.60;95.90;;;;;;4940239;29;20508;-80
2022/07/23 12:20:53;;;;;;;2.13;0.98;;;22.60;96.00;;;;;;4957534;29;20121;-78
2022/07/23 12:23:22;;;;;;;3.10;0.90;;;22.80;96.10;;;;;;4959570;29;20391;-79
2022/07/23 12:25:50;;;;;;;5.10;1.20;;;22.80;95.60;;;;;;4934365;29;20491;-78
2022/07/23 12:28:17;;;;;;;5.45;1.10;;;22.60;95.30;;;;;;4938295;29;20043;-79
2022/07/23 12:30:49;;;;;;;3.53;1.08;;;22.40;94.90;;;;;;4938780;29;20062;-78
2022/07/23 12:33:26;;;;;;;2.92;0.98;;;22.60;95.50;;;;;;4938119;29;20111;-79
2022/07/23 12:35:59;;;;;;;3.60;1.00;;;22.50;94.90;;;;;;4955719;29;20502;-77
2022/07/23 12:38:28;;;;;;;2.67;0.98;;;22.80;96.10;;;;;;4956762;29;20134;-77
2022/07/23 12:40:56;;;;;;;4.05;1.02;;;23.00;96.00;;;;;;4954631;28;20039;-77
2022/07/23 12:43:29;;;;;;;5.57;1.00;;;22.90;95.30;;;;;;4944349;29;20078;-80
2022/07/23 12:46:23;;;;;;;3.72;1.10;;;23.20;95.60;;;;;;4940900;29;20067;-82
2022/07/23 12:48:52;;;;;;;5.80;1.02;;;23.10;95.10;;;;;;4939110;29;20055;-78
2022/07/23 12:51:23;;;;;;;3.63;1.00;;;23.10;95.20;;;;;;4956845;29;20106;-79
2022/07/23 12:53:53;;;;;;;6.03;0.90;;;22.90;95.40;;;;;;4938471;29;20094;-80
2022/07/23 12:56:26;;;;;;;3.15;1.10;;;22.60;95.30;;;;;;4955311;29;20047;-79
2022/07/23 12:59:16;;;;;;;2.80;1.20;;;22.20;95.70;;;;;;4957056;29;20048;-80